Time;durP1;ratioP1;P1;durP2;ratioP2;P2;SDS_P1;SDS_P2;PMS_P1;PMS_P2;Temp;Humidity;BMP_temperature;BMP_pressure;BME280_temperature;BME280_humidity;BME280_pressure;Samples;Min_cycle;Max_cycle;Signal;HPM_P1;HPM_P2
2022/08/28 00:00:53;;;;;;;;;;;17.30;99.90;;;;;;5075335;28;19951;-63
2022/08/28 00:03:18;;;;;;;;;;;17.30;99.90;;;;;;5075489;28;19919;-63
2022/08/28 00:05:44;;;;;;;;;;;17.30;99.90;;;;;;5075476;28;19908;-63
2022/08/28 00:08:10;;;;;;;;;;;17.30;99.90;;;;;;5075715;28;19988;-63
2022/08/28 00:10:38;;;;;;;;;;;17.30;99.90;;;;;;5075403;28;19908;-64
2022/08/28 00:13:06;;;;;;;;;;;17.30;99.90;;;;;;5075591;28;19909;-64
2022/08/28 00:15:33;;;;;;;;;;;17.30;99.90;;;;;;5075235;28;19908;-63
2022/08/28 00:17:59;;;;;;;;;;;17.20;99.90;;;;;;5075155;28;20004;-63
2022/08/28 00:20:25;;;;;;;;;;;17.30;99.90;;;;;;5075425;28;19939;-63
2022/08/28 00:22:51;;;;;;;;;;;17.30;99.90;;;;;;5075061;28;19913;-63
2022/08/28 00:25:18;;;;;;;;;;;17.30;99.90;;;;;;5075369;28;19935;-64
2022/08/28 00:27:51;;;;;;;;;;;17.30;99.90;;;;;;5075038;28;19915;-63
2022/08/28 00:30:18;;;;;;;;;;;17.20;99.90;;;;;;5075247;28;19909;-63
2022/08/28 00:32:44;;;;;;;;;;;17.20;99.90;;;;;;5075214;28;20334;-63
2022/08/28 00:35:10;;;;;;;;;;;17.20;99.90;;;;;;5075143;28;19947;-63
2022/08/28 00:37:36;;;;;;;;;;;17.20;99.90;;;;;;5075088;28;19961;-64
2022/08/28 00:40:01;;;;;;;;;;;17.20;99.90;;;;;;5075057;28;20375;-63
2022/08/28 00:42:27;;;;;;;;;;;17.10;99.90;;;;;;5074621;28;20355;-63
2022/08/28 00:44:52;;;;;;;;;;;17.20;99.90;;;;;;5074794;28;20011;-63
2022/08/28 00:47:18;;;;;;;;;;;17.10;99.90;;;;;;5073956;28;20043;-63
2022/08/28 00:49:46;;;;;;;;;;;17.10;99.90;;;;;;5056800;28;19916;-63
2022/08/28 00:52:14;;;;;;;;;;;17.10;99.90;;;;;;5074533;28;19962;-63
2022/08/28 00:54:41;;;;;;;;;;;17.00;99.90;;;;;;5074737;28;19948;-63
2022/08/28 00:57:09;;;;;;;;;;;17.00;99.90;;;;;;5074441;28;19912;-63
2022/08/28 00:59:35;;;;;;;;;;;16.90;99.90;;;;;;5074625;28;20419;-63
2022/08/28 01:02:00;;;;;;;;;;;16.90;99.90;;;;;;5074074;28;19920;-63
2022/08/28 01:04:28;;;;;;;;;;;16.80;99.90;;;;;;5074282;28;20007;-63
2022/08/28 01:06:57;;;;;;;;;;;16.80;99.90;;;;;;5074524;28;19908;-63
2022/08/28 01:09:24;;;;;;;;;;;16.80;99.90;;;;;;5056341;28;19936;-63
2022/08/28 01:11:52;;;;;;;;;;;16.70;99.90;;;;;;5074429;28;19919;-63
2022/08/28 01:14:21;;;;;;;;;;;16.60;99.90;;;;;;5074163;28;20278;-64
2022/08/28 01:16:51;;;;;;;;;;;16.50;99.90;;;;;;5074036;28;19940;-64
2022/08/28 01:19:19;;;;;;;;;;;16.50;99.90;;;;;;5074307;28;19962;-63
2022/08/28 01:21:57;;;;;;;;;;;16.50;99.90;;;;;;5073879;28;19948;-64
2022/08/28 01:24:23;;;;;;;;;;;16.50;99.90;;;;;;5074271;28;19912;-64
2022/08/28 01:26:48;;;;;;;;;;;16.40;99.90;;;;;;5073880;28;20397;-63
2022/08/28 01:29:14;;;;;;;;;;;16.40;99.90;;;;;;5074168;28;19915;-63
2022/08/28 01:31:40;;;;;;;;;;;16.40;99.90;;;;;;5074140;28;19908;-64
2022/08/28 01:34:07;;;;;;;;;;;16.40;99.90;;;;;;5073816;28;20278;-63
2022/08/28 01:36:34;;;;;;;;;;;16.40;99.90;;;;;;5074009;28;19999;-63
2022/08/28 01:39:05;;;;;;;;;;;16.30;99.90;;;;;;5074021;28;20377;-64
2022/08/28 01:41:32;;;;;;;;;;;16.40;99.90;;;;;;5055919;28;19912;-64
2022/08/28 01:43:58;;;;;;;;;;;16.40;99.90;;;;;;5073637;28;19957;-64
2022/08/28 01:46:23;;;;;;;;;;;16.30;99.90;;;;;;5073694;28;20283;-63
2022/08/28 01:48:49;;;;;;;;;;;16.20;99.90;;;;;;5055761;28;19912;-64
2022/08/28 01:51:14;;;;;;;;;;;16.20;99.90;;;;;;5055719;28;20363;-63
2022/08/28 01:53:40;;;;;;;;;;;16.30;99.90;;;;;;5073881;28;19913;-64
2022/08/28 01:56:08;;;;;;;;;;;16.30;99.90;;;;;;5073881;28;19908;-63
2022/08/28 01:58:34;;;;;;;;;;;16.30;99.90;;;;;;5073441;28;19912;-64
2022/08/28 02:01:00;;;;;;;;;;;16.30;99.90;;;;;;5073325;28;19917;-63
2022/08/28 02:03:26;;;;;;;;;;;16.20;99.90;;;;;;5073491;28;20256;-64
2022/08/28 02:05:51;;;;;;;;;;;16.20;99.90;;;;;;5055669;28;19909;-63
2022/08/28 02:08:17;;;;;;;;;;;16.20;99.90;;;;;;5073468;28;19908;-63
2022/08/28 02:10:43;;;;;;;;;;;16.20;99.90;;;;;;5073751;28;19913;-64
2022/08/28 02:13:10;;;;;;;;;;;16.20;99.90;;;;;;5073397;28;19909;-64
2022/08/28 02:15:36;;;;;;;;;;;16.10;99.90;;;;;;5073679;28;19908;-64
2022/08/28 02:18:02;;;;;;;;;;;16.10;99.90;;;;;;5073401;28;19915;-63
2022/08/28 02:20:27;;;;;;;;;;;15.90;99.90;;;;;;5073648;28;20366;-63
2022/08/28 02:22:54;;;;;;;;;;;15.90;99.90;;;;;;5073465;28;19923;-63
2022/08/28 02:25:20;;;;;;;;;;;15.80;99.90;;;;;;5073575;28;19915;-64
2022/08/28 02:27:45;;;;;;;;;;;15.80;99.90;;;;;;5073318;28;20333;-63
2022/08/28 02:30:11;;;;;;;;;;;15.70;99.90;;;;;;5073555;28;19930;-63
2022/08/28 02:32:37;;;;;;;;;;;15.70;99.90;;;;;;5073168;28;19908;-64
2022/08/28 02:35:03;;;;;;;;;;;15.60;99.90;;;;;;5073190;28;19912;-64
2022/08/28 02:37:28;;;;;;;;;;;15.50;99.90;;;;;;5073183;28;19909;-63
2022/08/28 02:39:55;;;;;;;;;;;15.50;99.90;;;;;;5073420;28;19916;-63
2022/08/28 02:42:20;;;;;;;;;;;15.40;99.90;;;;;;5073301;28;19916;-63
2022/08/28 02:44:46;;;;;;;;;;;15.30;99.90;;;;;;5073080;28;19962;-63
2022/08/28 02:47:13;;;;;;;;;;;15.30;99.90;;;;;;5073085;28;20447;-64
2022/08/28 02:49:39;;;;;;;;;;;15.20;99.90;;;;;;5073363;28;20383;-64
2022/08/28 02:52:05;;;;;;;;;;;15.10;99.90;;;;;;5073050;28;19915;-63
2022/08/28 02:54:31;;;;;;;;;;;15.00;99.90;;;;;;5073250;28;19908;-64
2022/08/28 02:56:56;;;;;;;;;;;15.00;99.90;;;;;;5073250;28;19955;-64
2022/08/28 02:59:22;;;;;;;;;;;14.90;99.90;;;;;;5073268;28;19962;-63
2022/08/28 03:01:47;;;;;;;;;;;14.90;99.90;;;;;;5072770;28;19927;-63
2022/08/28 03:04:13;;;;;;;;;;;14.80;99.90;;;;;;5054949;28;19913;-63
2022/08/28 03:06:38;;;;;;;;;;;14.80;99.90;;;;;;5073160;28;20003;-64
2022/08/28 03:09:04;;;;;;;;;;;14.80;99.90;;;;;;5073768;28;19909;-63
2022/08/28 03:11:29;;;;;;;;;;;14.70;99.90;;;;;;5076772;28;19951;-63
2022/08/28 03:13:55;;;;;;;;;;;14.70;99.90;;;;;;5076431;28;19908;-63
2022/08/28 03:16:20;;;;;;;;;;;14.60;99.90;;;;;;5076695;28;19957;-63
2022/08/28 03:18:46;;;;;;;;;;;14.60;99.90;;;;;;5076340;28;20366;-63
2022/08/28 03:21:12;;;;;;;;;;;14.50;99.90;;;;;;5076236;28;19915;-64
2022/08/28 03:23:38;;;;;;;;;;;14.50;99.90;;;;;;5076550;28;19916;-63
2022/08/28 03:26:08;;;;;;;;;;;14.50;99.90;;;;;;5076495;28;19936;-63
2022/08/28 03:28:37;;;;;;;;;;;14.50;99.90;;;;;;5076445;28;19912;-63
2022/08/28 03:31:04;;;;;;;;;;;14.50;99.90;;;;;;5076389;28;20314;-63
2022/08/28 03:33:30;;;;;;;;;;;14.50;99.90;;;;;;5076357;28;19948;-63
2022/08/28 03:35:56;;;;;;;;;;;14.60;99.90;;;;;;5076017;28;19916;-63
2022/08/28 03:38:21;;;;;;;;;;;14.60;99.90;;;;;;5076300;28;19954;-63
2022/08/28 03:40:47;;;;;;;;;;;14.60;99.90;;;;;;5075989;28;19942;-63
2022/08/28 03:43:13;;;;;;;;;;;14.60;99.90;;;;;;5076145;28;20020;-63
2022/08/28 03:45:39;;;;;;;;;;;14.70;99.90;;;;;;5058107;28;19915;-63
2022/08/28 03:48:06;;;;;;;;;;;14.70;99.90;;;;;;5075853;28;19908;-63
2022/08/28 03:50:32;;;;;;;;;;;14.70;99.90;;;;;;5058024;28;19908;-63
2022/08/28 03:52:58;;;;;;;;;;;14.60;99.90;;;;;;5075713;28;20179;-63
2022/08/28 03:55:24;;;;;;;;;;;14.60;99.90;;;;;;5058136;28;19912;-63
2022/08/28 03:57:50;;;;;;;;;;;14.60;99.90;;;;;;5075927;28;19913;-63
2022/08/28 04:00:17;;;;;;;;;;;14.50;99.90;;;;;;5075608;28;19909;-63
2022/08/28 04:02:42;;;;;;;;;;;14.50;99.90;;;;;;5075347;28;20300;-63
2022/08/28 04:05:08;;;;;;;;;;;14.40;99.90;;;;;;5075570;28;19908;-63
2022/08/28 04:07:34;;;;;;;;;;;14.40;99.90;;;;;;5075460;28;20025;-63
2022/08/28 04:10:00;;;;;;;;;;;14.30;99.90;;;;;;5057442;28;20390;-63
2022/08/28 04:12:25;;;;;;;;;;;14.20;99.90;;;;;;5057779;28;19947;-63
2022/08/28 04:14:51;;;;;;;;;;;14.20;99.90;;;;;;5075617;28;20351;-63
2022/08/28 04:17:16;;;;;;;;;;;14.20;99.90;;;;;;5075218;28;20371;-63
2022/08/28 04:19:43;;;;;;;;;;;14.30;99.90;;;;;;5075247;28;19958;-64
2022/08/28 04:22:09;;;;;;;;;;;14.20;99.90;;;;;;5075392;28;19962;-63
2022/08/28 04:24:34;;;;;;;;;;;14.30;99.90;;;;;;5075159;28;19909;-63
2022/08/28 04:27:00;;;;;;;;;;;14.20;99.90;;;;;;5075354;28;19909;-63
2022/08/28 04:29:25;;;;;;;;;;;14.20;99.90;;;;;;5075333;28;19909;-63
2022/08/28 04:31:51;;;;;;;;;;;14.20;99.90;;;;;;5075254;28;19908;-63
2022/08/28 04:34:16;;;;;;;;;;;14.30;99.90;;;;;;5075197;28;19909;-64
2022/08/28 04:36:42;;;;;;;;;;;14.30;99.90;;;;;;5075162;28;20359;-63
2022/08/28 04:39:09;;;;;;;;;;;14.30;99.90;;;;;;5074808;28;19915;-63
2022/08/28 04:41:37;;;;;;;;;;;14.40;99.90;;;;;;5074965;28;20317;-63
2022/08/28 04:44:03;;;;;;;;;;;14.40;99.90;;;;;;5075036;28;20355;-63
2022/08/28 04:46:29;;;;;;;;;;;14.40;99.90;;;;;;5074985;28;19908;-63
2022/08/28 04:48:54;;;;;;;;;;;14.40;99.90;;;;;;5074586;28;19915;-63
2022/08/28 04:51:20;;;;;;;;;;;14.40;99.90;;;;;;5074574;28;20345;-63
2022/08/28 04:53:46;;;;;;;;;;;14.50;99.90;;;;;;5074492;28;19954;-63
2022/08/28 04:56:12;;;;;;;;;;;14.50;99.90;;;;;;5074676;28;19957;-63
2022/08/28 04:58:39;;;;;;;;;;;14.50;99.90;;;;;;5074408;28;19908;-63
2022/08/28 05:01:06;;;;;;;;;;;14.50;99.90;;;;;;5074229;28;19916;-64
2022/08/28 05:03:31;;;;;;;;;;;14.50;99.90;;;;;;5074627;28;20309;-63
2022/08/28 05:05:57;;;;;;;;;;;14.60;99.90;;;;;;5074266;28;19958;-63
2022/08/28 05:08:25;;;;;;;;;;;14.60;99.90;;;;;;5074524;28;19920;-63
2022/08/28 05:10:51;;;;;;;;;;;14.60;99.90;;;;;;5074480;28;19915;-63
2022/08/28 05:13:18;;;;;;;;;;;14.70;99.90;;;;;;5074402;28;20363;-63
2022/08/28 05:15:44;;;;;;;;;;;14.60;99.90;;;;;;5074398;28;19931;-63
2022/08/28 05:18:12;;;;;;;;;;;14.60;99.90;;;;;;5074368;28;20271;-63
2022/08/28 05:20:39;;;;;;;;;;;14.70;99.90;;;;;;5074295;28;19908;-63
2022/08/28 05:23:05;;;;;;;;;;;14.70;99.90;;;;;;5074231;28;19912;-63
2022/08/28 05:25:34;;;;;;;;;;;14.80;99.90;;;;;;5074245;28;19909;-63
2022/08/28 05:27:59;;;;;;;;;;;14.80;99.90;;;;;;5074205;28;19958;-64
2022/08/28 05:30:25;;;;;;;;;;;14.90;99.90;;;;;;5073837;28;19909;-63
2022/08/28 05:32:50;;;;;;;;;;;14.90;99.90;;;;;;5073749;28;19908;-63
2022/08/28 05:35:16;;;;;;;;;;;15.00;99.90;;;;;;5073878;28;19931;-63
2022/08/28 05:37:41;;;;;;;;;;;15.00;99.90;;;;;;5055978;28;19909;-63
2022/08/28 05:40:09;;;;;;;;;;;15.10;99.90;;;;;;5073776;28;20263;-63
2022/08/28 05:42:34;;;;;;;;;;;15.10;99.90;;;;;;5055787;28;19920;-63
2022/08/28 05:45:00;;;;;;;;;;;;;;;;;;5073734;28;19908;-63
2022/08/28 05:47:25;;;;;;;;;;;15.40;99.90;;;;;;5055679;28;20243;-63
2022/08/28 05:49:51;;;;;;;;;;;15.70;99.90;;;;;;5073701;28;19999;-64
2022/08/28 05:52:17;;;;;;;;;;;16.30;99.90;;;;;;5073707;28;19908;-63
2022/08/28 05:54:42;;;;;;;;;;;16.70;99.90;;;;;;5073872;28;19912;-64
2022/08/28 05:57:07;;;;;;;;;;;17.20;99.90;;;;;;5073662;28;19909;-64
2022/08/28 05:59:33;;;;;;;;;;;17.50;99.90;;;;;;5073858;28;19913;-64
2022/08/28 06:01:58;;;;;;;;;;;17.10;99.90;;;;;;5073442;28;19970;-64
2022/08/28 06:04:25;;;;;;;;;;;17.40;99.90;;;;;;5055608;28;20425;-63
2022/08/28 06:06:51;;;;;;;;;;;17.60;99.90;;;;;;5073872;28;20362;-64
2022/08/28 06:09:19;;;;;;;;;;;17.90;99.90;;;;;;5056008;28;19908;-63
2022/08/28 06:11:44;;;;;;;;;;;17.80;99.90;;;;;;5073582;28;19908;-64
2022/08/28 06:14:14;;;;;;;;;;;17.60;99.90;;;;;;5055873;28;19909;-64
2022/08/28 06:16:41;;;;;;;;;;;17.40;99.90;;;;;;5074850;28;20386;-63
2022/08/28 06:19:08;;;;;;;;;;;17.40;99.90;;;;;;5074579;28;20367;-63
2022/08/28 06:21:33;;;;;;;;;;;17.60;99.90;;;;;;5073586;28;19916;-63
2022/08/28 06:23:59;;;;;;;;;;;17.60;99.90;;;;;;5073731;28;19943;-64
2022/08/28 06:26:25;;;;;;;;;;;17.50;99.90;;;;;;5073611;28;19908;-63
2022/08/28 06:28:51;;;;;;;;;;;17.60;99.90;;;;;;5055441;28;19908;-63
2022/08/28 06:31:17;;;;;;;;;;;17.50;99.90;;;;;;5073641;28;20363;-63
2022/08/28 06:33:44;;;;;;;;;;;17.70;99.90;;;;;;5073429;28;19962;-63
2022/08/28 06:36:10;;;;;;;;;;;18.00;99.90;;;;;;5073488;28;20370;-63
2022/08/28 06:38:36;;;;;;;;;;;17.90;99.90;;;;;;5073485;28;19908;-63
2022/08/28 06:41:07;;;;;;;;;;;18.50;99.90;;;;;;5055383;28;20424;-63
2022/08/28 06:43:33;;;;;;;;;;;18.80;99.90;;;;;;5073554;28;20278;-63
2022/08/28 06:45:59;;;;;;;;;;;19.60;99.90;;;;;;5077320;28;19915;-63
2022/08/28 06:48:26;;;;;;;;;;;20.30;99.90;;;;;;5077176;28;19908;-64
2022/08/28 06:50:52;;;;;;;;;;;20.30;99.90;;;;;;5077182;28;19909;-64
2022/08/28 06:53:19;;;;;;;;;;;20.00;99.90;;;;;;5077131;28;19958;-64
2022/08/28 06:55:44;;;;;;;;;;;19.70;99.90;;;;;;5076790;28;20011;-64
2022/08/28 06:58:11;;;;;;;;;;;19.40;99.90;;;;;;5077090;28;20005;-64
2022/08/28 07:00:37;;;;;;;;;;;19.30;99.90;;;;;;5076864;28;19909;-64
2022/08/28 07:03:04;;;;;;;;;;;19.60;99.90;;;;;;5076595;28;19935;-64
2022/08/28 07:05:31;;;;;;;;;;;21.30;99.90;;;;;;5076911;28;19908;-63
2022/08/28 07:07:56;;;;;;;;;;;21.50;99.90;;;;;;5076862;28;19915;-64
2022/08/28 07:10:21;;;;;;;;;;;22.40;99.90;;;;;;5076817;28;19959;-64
2022/08/28 07:12:49;;;;;;;;;;;22.50;99.90;;;;;;5076774;28;19908;-64
2022/08/28 07:15:15;;;;;;;;;;;22.30;99.90;;;;;;5076739;28;20420;-64
2022/08/28 07:17:40;;;;;;;;;;;23.10;99.90;;;;;;5076706;28;19912;-64
2022/08/28 07:20:06;;;;;;;;;;;23.90;99.90;;;;;;5076362;28;19915;-64
2022/08/28 07:22:32;;;;;;;;;;;25.40;99.90;;;;;;5076528;28;19913;-64
2022/08/28 07:24:57;;;;;;;;;;;26.00;97.30;;;;;;5076546;28;19956;-64
2022/08/28 07:27:24;;;;;;;;;;;25.90;96.20;;;;;;5076548;28;20397;-64
2022/08/28 07:29:51;;;;;;;;;;;25.00;96.40;;;;;;5076509;28;19908;-64
2022/08/28 07:32:18;;;;;;;;;;;23.50;98.20;;;;;;5058767;28;19908;-65
2022/08/28 07:34:44;;;;;;;;;;;;;;;;;;5076383;28;20282;-65
2022/08/28 07:37:09;;;;;;;;;;;22.40;99.90;;;;;;5076053;28;19909;-64
2022/08/28 07:39:35;;;;;;;;;;;22.20;99.90;;;;;;5076308;28;19916;-64
2022/08/28 07:42:00;;;;;;;;;;;21.80;99.90;;;;;;5075898;28;20341;-64
2022/08/28 07:44:58;;;;;;;;;;;21.70;99.90;;;;;;5076218;28;19958;-63
2022/08/28 07:47:12;;;;;;;;;;;21.60;99.90;;;;;;5060796;28;19916;-64
2022/08/28 07:49:38;;;;;;;;;;;21.60;99.90;;;;;;5075871;28;20278;-63
2022/08/28 07:52:05;;;;;;;;;;;21.70;99.90;;;;;;5057886;28;19958;-64
2022/08/28 07:54:30;;;;;;;;;;;22.20;99.90;;;;;;5075358;28;20417;-63
2022/08/28 07:56:56;;;;;;;;;;;22.80;99.90;;;;;;5075672;28;19909;-63
2022/08/28 07:59:21;;;;;;;;;;;22.90;99.90;;;;;;5075945;28;19959;-63
2022/08/28 08:01:47;;;;;;;;;;;22.30;99.90;;;;;;5075493;28;19921;-64
2022/08/28 08:04:14;;;;;;;;;;;21.90;99.90;;;;;;5075832;28;19909;-64
2022/08/28 08:06:40;;;;;;;;;;;21.40;99.90;;;;;;5075807;28;19916;-63
2022/08/28 08:09:08;;;;;;;;;;;21.50;99.90;;;;;;5075817;28;19909;-63
2022/08/28 08:11:33;;;;;;;;;;;22.70;99.90;;;;;;5075725;28;19958;-63
2022/08/28 08:14:03;;;;;;;;;;;24.00;99.70;;;;;;5075427;28;20260;-64
2022/08/28 08:16:29;;;;;;;;;;;25.50;97.20;;;;;;5075572;28;20295;-63
2022/08/28 08:18:56;;;;;;;;;;;24.60;96.10;;;;;;5075545;28;19993;-63
2022/08/28 08:21:22;;;;;;;;;;;24.10;96.50;;;;;;5075437;28;20041;-63
2022/08/28 08:23:48;;;;;;;;;;;24.10;97.50;;;;;;5075407;28;20374;-64
2022/08/28 08:26:15;;;;;;;;;;;25.10;95.60;;;;;;5075376;28;19913;-64
2022/08/28 08:28:41;;;;;;;;;;;25.20;93.90;;;;;;5057270;28;20003;-63
2022/08/28 08:31:12;;;;;;;;;;;23.70;95.30;;;;;;5057339;28;20006;-63
2022/08/28 08:33:39;;;;;;;;;;;23.40;97.70;;;;;;5057227;28;19995;-63
2022/08/28 08:36:05;;;;;;;;;;;24.40;97.00;;;;;;5075154;28;19908;-64
2022/08/28 08:38:32;;;;;;;;;;;26.00;94.20;;;;;;5074884;28;19909;-64
2022/08/28 08:40:58;;;;;;;;;;;26.40;92.20;;;;;;5075046;28;19912;-64
2022/08/28 08:43:25;;;;;;;;;;;26.10;92.60;;;;;;5074895;28;19939;-64
2022/08/28 08:45:51;;;;;;;;;;;25.30;92.70;;;;;;5074744;28;19913;-64
2022/08/28 08:48:33;;;;;;;;;;;25.30;92.20;;;;;;5056712;28;20325;-64
2022/08/28 08:51:04;;;;;;;;;;;25.10;92.60;;;;;;5074872;28;20001;-63
2022/08/28 08:53:37;;;;;;;;;;;25.50;93.00;;;;;;5074538;28;20102;-64
2022/08/28 08:56:04;;;;;;;;;;;26.80;90.70;;;;;;5074734;28;20382;-64
2022/08/28 08:58:38;;;;;;;;;;;25.30;90.90;;;;;;5074747;28;19909;-63
2022/08/28 09:01:13;;;;;;;;;;;22.50;94.40;;;;;;5074234;28;19923;-63
2022/08/28 09:03:58;;;;;;;;;;;22.20;96.60;;;;;;5074572;28;20333;-63
2022/08/28 09:06:34;;;;;;;;;;;21.70;97.30;;;;;;5073670;28;19958;-63
2022/08/28 09:09:00;;;;;;;;;;;22.20;98.40;;;;;;5074523;28;19909;-64
2022/08/28 09:14:22;;;;;;;;;;;25.80;91.20;;;;;;5091224;27;20281;-63
2022/08/28 09:16:48;;;;;;;;;;;25.50;90.40;;;;;;5091401;28;19912;-64
2022/08/28 09:19:16;;;;;;;;;;;24.80;91.80;;;;;;5091311;28;19912;-64
2022/08/28 09:21:42;;;;;;;;;;;23.80;93.40;;;;;;5089789;28;20007;-64
2022/08/28 09:24:16;;;;;;;;;;;23.20;94.00;;;;;;5091104;28;19914;-64
2022/08/28 09:26:49;;;;;;;;;;;23.30;95.10;;;;;;5089639;28;20287;-63
2022/08/28 09:29:17;;;;;;;;;;;24.40;92.70;;;;;;5090870;28;19908;-64
2022/08/28 09:31:43;;;;;;;;;;;25.00;90.90;;;;;;5090968;28;19951;-64
2022/08/28 09:34:28;;;;;;;;;;;25.70;89.80;;;;;;5089621;28;20390;-63
2022/08/28 09:36:55;;;;;;;;;;;26.60;87.70;;;;;;5090814;28;19916;-63
2022/08/28 09:39:22;;;;;;;;;;;26.60;86.70;;;;;;5090946;28;19908;-63
2022/08/28 09:45:00;;;;;;;;;;;28.60;80.10;;;;;;5090463;28;19908;-63
2022/08/28 09:47:43;;;;;;;;;;;28.50;79.10;;;;;;5090613;28;20010;-63
2022/08/28 09:50:25;;;;;;;;;;;28.20;78.70;;;;;;5090758;28;19908;-63
2022/08/28 09:52:51;;;;;;;;;;;28.10;80.20;;;;;;5090387;28;19912;-63
2022/08/28 09:55:20;;;;;;;;;;;28.10;80.40;;;;;;5090560;28;19912;-63
2022/08/28 09:57:47;;;;;;;;;;;27.30;81.20;;;;;;5090372;28;19934;-63
2022/08/28 10:00:13;;;;;;;;;;;28.20;79.00;;;;;;5090310;28;19919;-63
2022/08/28 10:02:44;;;;;;;;;;;28.10;73.90;;;;;;5090578;28;19908;-63
2022/08/28 10:05:15;;;;;;;;;;;27.10;81.10;;;;;;5089002;28;19908;-63
2022/08/28 10:07:48;;;;;;;;;;;26.50;80.30;;;;;;5090468;28;19908;-63
2022/08/28 10:10:23;;;;;;;;;;;24.90;84.50;;;;;;5090101;28;20011;-64
2022/08/28 10:13:01;;;;;;;;;;;25.70;85.30;;;;;;5099204;28;19990;-63
2022/08/28 10:15:46;;;;;;;;;;;26.50;82.60;;;;;;5110369;28;19933;-63
2022/08/28 10:18:27;;;;;;;;;;;27.20;78.00;;;;;;5110271;28;19912;-63
2022/08/28 10:21:12;;;;;;;;;;;26.80;75.00;;;;;;5110221;28;19950;-63
2022/08/28 10:23:53;;;;;;;;;;;25.40;79.70;;;;;;5107284;28;20366;-63
2022/08/28 10:26:25;;;;;;;;;;;26.20;80.50;;;;;;5096582;28;19908;-63
2022/08/28 10:29:10;;;;;;;;;;;26.70;78.80;;;;;;5096760;28;20390;-63
2022/08/28 10:34:27;;;;;;;;;;;27.50;78.30;;;;;;5071013;28;19913;-64
2022/08/28 10:37:01;;;;;;;;;;;28.10;74.80;;;;;;5070901;28;19912;-64
2022/08/28 10:39:47;;;;;;;;;;;26.60;78.20;;;;;;5071086;28;19912;-63
2022/08/28 10:42:13;;;;;;;;;;;26.20;77.80;;;;;;5070798;28;19948;-64
2022/08/28 10:44:57;;;;;;;;;;;26.60;77.00;;;;;;5071135;28;20370;-64
2022/08/28 10:47:24;;;;;;;;;;;27.30;77.30;;;;;;5071007;28;19959;-64
2022/08/28 10:49:52;;;;;;;;;;;26.90;75.30;;;;;;5070890;28;20290;-63
2022/08/28 10:52:22;;;;;;;;;;;26.80;79.10;;;;;;5070809;28;19960;-64
2022/08/28 10:54:51;;;;;;;;;;;27.00;76.60;;;;;;5070539;28;19995;-64
2022/08/28 10:57:34;;;;;;;;;;;25.80;78.30;;;;;;5070785;28;20378;-64
2022/08/28 11:00:04;;;;;;;;;;;25.70;80.40;;;;;;5070700;28;19958;-63
2022/08/28 11:02:29;;;;;;;;;;;24.80;81.60;;;;;;5070699;28;20023;-63
2022/08/28 11:04:55;;;;;;;;;;;24.70;83.00;;;;;;5070649;28;19927;-64
2022/08/28 11:07:37;;;;;;;;;;;24.30;82.80;;;;;;5070384;28;20031;-64
2022/08/28 11:10:22;;;;;;;;;;;23.90;84.50;;;;;;5070507;28;19909;-64
2022/08/28 11:12:50;;;;;;;;;;;24.30;85.40;;;;;;5070140;28;19963;-63
2022/08/28 11:15:35;;;;;;;;;;;25.30;84.00;;;;;;5070552;28;19909;-64
2022/08/28 11:18:20;;;;;;;;;;;25.60;80.70;;;;;;5070097;28;19908;-63
2022/08/28 11:21:07;;;;;;;;;;;25.60;82.20;;;;;;5070020;28;20381;-63
2022/08/28 11:23:43;;;;;;;;;;;25.20;81.80;;;;;;5083180;28;19927;-63
2022/08/28 11:26:11;;;;;;;;;;;25.20;83.00;;;;;;5070209;28;20393;-63
2022/08/28 11:28:41;;;;;;;;;;;25.20;82.00;;;;;;5070159;28;19909;-63
2022/08/28 11:33:48;;;;;;;;;;;25.40;80.30;;;;;;5071096;28;19913;-64
2022/08/28 11:36:20;;;;;;;;;;;25.80;80.10;;;;;;5071205;28;19913;-63
2022/08/28 11:41:33;;;;;;;;;;;25.20;81.70;;;;;;5091370;27;19919;-63
2022/08/28 11:44:18;;;;;;;;;;;24.80;82.10;;;;;;5091404;28;19954;-63
2022/08/28 11:46:46;;;;;;;;;;;24.60;83.70;;;;;;5091061;28;20413;-63
2022/08/28 11:49:32;;;;;;;;;;;24.50;82.50;;;;;;5091270;28;19908;-63
2022/08/28 11:55:12;;;;;;;;;;;24.60;80.60;;;;;;5071015;28;19919;-63
2022/08/28 11:57:50;;;;;;;;;;;24.90;82.10;;;;;;5070911;28;20395;-63
2022/08/28 12:00:21;;;;;;;;;;;25.50;81.70;;;;;;5071113;28;19909;-63
2022/08/28 12:02:48;;;;;;;;;;;25.30;80.90;;;;;;5071089;28;19909;-63
2022/08/28 12:05:16;;;;;;;;;;;25.10;81.00;;;;;;5071059;28;20268;-63
2022/08/28 12:07:44;;;;;;;;;;;24.80;80.90;;;;;;5070864;28;19970;-63
2022/08/28 12:10:30;;;;;;;;;;;24.50;81.80;;;;;;5070696;28;19909;-63
2022/08/28 12:12:57;;;;;;;;;;;24.60;82.00;;;;;;5070486;28;20389;-62
2022/08/28 12:18:05;;;;;;;;;;;25.10;79.80;;;;;;5091333;27;19912;-62
2022/08/28 12:20:52;;;;;;;;;;;24.80;81.20;;;;;;5091417;28;19912;-62
2022/08/28 12:23:37;;;;;;;;;;;24.60;81.90;;;;;;5091038;28;19908;-62
2022/08/28 12:26:08;;;;;;;;;;;24.50;80.30;;;;;;5090954;28;20323;-62
2022/08/28 12:28:51;;;;;;;;;;;24.60;81.20;;;;;;5091262;28;19912;-62
2022/08/28 12:34:27;;;;;;;;;;;24.60;79.20;;;;;;5090709;28;19908;-63
2022/08/28 12:36:55;;;;;;;;;;;24.00;80.50;;;;;;5091018;28;20339;-63
2022/08/28 12:39:21;;;;;;;;;;;24.30;81.20;;;;;;5090961;28;19909;-63
2022/08/28 12:41:47;;;;;;;;;;;24.50;79.20;;;;;;5090696;28;19909;-63
2022/08/28 12:44:14;;;;;;;;;;;25.00;78.90;;;;;;5090933;28;19974;-64
2022/08/28 12:46:41;;;;;;;;;;;24.90;79.80;;;;;;5090860;28;20377;-63
2022/08/28 12:49:27;;;;;;;;;;;25.00;77.80;;;;;;5090590;28;20371;-63
2022/08/28 12:52:06;;;;;;;;;;;25.00;78.30;;;;;;5090516;28;19951;-63
2022/08/28 12:54:31;;;;;;;;;;;25.20;78.50;;;;;;5090747;28;19908;-63
2022/08/28 12:56:57;;;;;;;;;;;25.00;76.90;;;;;;5090618;28;19912;-63
2022/08/28 12:59:39;;;;;;;;;;;25.00;77.50;;;;;;5090444;28;20003;-63
2022/08/28 13:02:10;;;;;;;;;;;24.90;75.60;;;;;;5090607;28;19920;-63
2022/08/28 13:04:37;;;;;;;;;;;24.90;77.30;;;;;;5090192;28;19915;-64
2022/08/28 13:07:06;;;;;;;;;;;24.90;78.20;;;;;;5090556;28;19908;-64
2022/08/28 13:09:32;;;;;;;;;;;25.40;77.00;;;;;;5090500;28;20328;-63
2022/08/28 13:11:57;;;;;;;;;;;25.10;75.30;;;;;;5090201;28;19908;-62
2022/08/28 13:14:43;;;;;;;;;;;24.70;77.00;;;;;;5090146;28;19916;-62
2022/08/28 13:17:09;;;;;;;;;;;24.80;78.50;;;;;;5102845;28;20018;-61
2022/08/28 13:19:35;;;;;;;;;;;24.60;78.60;;;;;;5110334;28;19912;-61
2022/08/28 13:22:02;;;;;;;;;;;24.80;78.00;;;;;;5110290;28;19961;-62
2022/08/28 13:24:44;;;;;;;;;;;24.80;77.30;;;;;;5110509;28;19908;-62
2022/08/28 13:30:07;;;;;;;;;;;24.90;77.50;;;;;;5091310;28;19935;-63
2022/08/28 13:32:36;;;;;;;;;;;24.80;77.30;;;;;;5091113;28;19944;-63
2022/08/28 13:35:04;;;;;;;;;;;24.80;77.40;;;;;;5089887;28;20337;-63
2022/08/28 13:37:46;;;;;;;;;;;25.00;77.30;;;;;;5091095;28;19909;-63
2022/08/28 13:40:13;;;;;;;;;;;24.80;74.80;;;;;;5091252;28;19916;-63
2022/08/28 13:42:39;;;;;;;;;;;24.60;74.50;;;;;;5091197;28;19908;-63
2022/08/28 13:45:05;;;;;;;;;;;24.50;74.30;;;;;;5090806;28;20341;-63
2022/08/28 13:47:30;;;;;;;;;;;23.80;77.10;;;;;;5091018;28;20418;-63
2022/08/28 13:49:56;;;;;;;;;;;24.10;78.90;;;;;;5091108;28;20003;-62
2022/08/28 13:52:21;;;;;;;;;;;24.50;77.10;;;;;;5089626;28;19995;-62
2022/08/28 13:54:47;;;;;;;;;;;24.40;79.00;;;;;;5091104;28;19915;-63
2022/08/28 13:57:13;;;;;;;;;;;24.00;78.20;;;;;;5090739;28;19909;-66
2022/08/28 13:59:39;;;;;;;;;;;23.70;78.40;;;;;;5090903;28;19909;-68
2022/08/28 14:04:50;;;;;;;;;;;24.10;79.30;;;;;;5117843;28;19913;-64
2022/08/28 14:07:16;;;;;;;;;;;24.40;76.50;;;;;;5090759;28;20022;-63
2022/08/28 14:09:41;;;;;;;;;;;24.50;76.50;;;;;;5090629;28;19912;-64
2022/08/28 14:12:07;;;;;;;;;;;24.50;75.80;;;;;;5090397;28;19908;-64
2022/08/28 14:14:33;;;;;;;;;;;24.60;77.10;;;;;;5090621;28;20026;-64
2022/08/28 14:17:00;;;;;;;;;;;24.80;77.30;;;;;;5090343;28;20359;-63
2022/08/28 14:19:26;;;;;;;;;;;24.90;76.80;;;;;;5090537;28;19916;-63
2022/08/28 14:21:52;;;;;;;;;;;24.50;77.20;;;;;;5090197;28;20358;-62
2022/08/28 14:24:17;;;;;;;;;;;24.60;76.60;;;;;;5090210;28;19958;-63
2022/08/28 14:26:44;;;;;;;;;;;24.80;77.20;;;;;;5090372;28;19908;-63
2022/08/28 14:29:10;;;;;;;;;;;24.70;75.90;;;;;;5105061;28;19927;-63
2022/08/28 14:31:39;;;;;;;;;;;24.50;77.30;;;;;;5110625;28;19912;-62
2022/08/28 14:34:06;;;;;;;;;;;24.50;77.40;;;;;;5110314;28;20371;-63
2022/08/28 14:36:31;;;;;;;;;;;24.50;77.40;;;;;;5110532;28;20264;-63
2022/08/28 14:38:58;;;;;;;;;;;24.60;77.30;;;;;;5091774;28;19915;-62
2022/08/28 14:41:24;;;;;;;;;;;24.60;76.30;;;;;;5096432;28;20389;-63
2022/08/28 14:43:51;;;;;;;;;;;24.30;77.20;;;;;;5096632;28;19912;-64
2022/08/28 14:46:18;;;;;;;;;;;24.30;76.90;;;;;;5096755;28;19908;-63
2022/08/28 14:48:44;;;;;;;;;;;24.40;77.40;;;;;;5096398;28;20290;-62
2022/08/28 14:51:09;;;;;;;;;;;24.30;77.20;;;;;;5096600;28;19908;-61
2022/08/28 14:53:36;;;;;;;;;;;24.30;77.20;;;;;;5096345;28;19912;-62